Bagdad, Kentucky
Current Conditions -  °F | °C
As of 2:53 PM on Sunday 23 Nov 2014 (Local Time) from KFFT Reporting Station
Light Rain Light Rain  
Wind Chill: 52°   Ceiling: 5000
Heat Index: 52°   Visibility: 6mi
Dew Point: 49°   Wind: 10mph
Humidity: 89%   Direction: 110°ESE
Pressure: 29.66"   Gusts: NA
Location:  38.26°N, 85.06°W
Report Text: KFFT 231953Z AUTO 11009KT 6SM -RA BR FEW035 BKN050 OVC100 11/09 A2966 RMK AO2 SLP044 P0010 T01110094
Loading
Personal Weather Stations






























Interactive Weather Map New forecast layout! Learn more

10-Day Weather Forecast

Advertisements
Track Severe Weather on mobile